Time;durP1;ratioP1;P1;durP2;ratioP2;P2;SDS_P1;SDS_P2;PMS_P1;PMS_P2;Temp;Humidity;BMP_temperature;BMP_pressure;BME280_temperature;BME280_humidity;BME280_pressure;Samples;Min_cycle;Max_cycle;Signal;HPM_P1;HPM_P2
2021/12/29 00:00:36;;;;;;;1.53;1.10;;;22.50;67.50;;;;;;5035644;28;20449;-66
2021/12/29 00:03:03;;;;;;;1.17;0.93;;;22.50;67.50;;;;;;5035463;28;20501;-66
2021/12/29 00:05:31;;;;;;;1.50;1.10;;;22.50;68.40;;;;;;5035654;28;20486;-66
2021/12/29 00:08:00;;;;;;;1.30;1.00;;;22.50;67.50;;;;;;5035533;28;20972;-66
2021/12/29 00:10:27;;;;;;;1.50;1.00;;;22.50;68.40;;;;;;5035640;28;20447;-66
2021/12/29 00:12:55;;;;;;;1.00;0.80;;;22.50;67.60;;;;;;5035406;28;20466;-66
2021/12/29 00:15:25;;;;;;;1.30;0.80;;;22.50;67.50;;;;;;5035309;28;20443;-66
2021/12/29 00:17:53;;;;;;;1.13;0.90;;;22.50;67.60;;;;;;5060939;28;20472;-66
2021/12/29 00:20:22;;;;;;;1.10;0.80;;;22.50;67.60;;;;;;5075130;28;20445;-65
2021/12/29 00:22:49;;;;;;;1.20;1.00;;;22.50;67.60;;;;;;5075279;28;20444;-66
2021/12/29 00:25:17;;;;;;;1.40;0.83;;;22.50;67.60;;;;;;5075273;28;20492;-65
2021/12/29 00:27:44;;;;;;;2.07;1.17;;;22.50;67.60;;;;;;5075053;28;20444;-66
2021/12/29 00:30:13;;;;;;;1.20;0.80;;;22.50;67.60;;;;;;5074993;28;20444;-66
2021/12/29 00:32:40;;;;;;;1.20;0.83;;;22.50;67.60;;;;;;5074715;28;20452;-66
2021/12/29 00:35:08;;;;;;;1.60;1.00;;;22.50;67.60;;;;;;5074797;28;20452;-66
2021/12/29 00:37:34;;;;;;;1.20;1.00;;;22.50;67.60;;;;;;5074795;28;20452;-66
2021/12/29 00:40:01;;;;;;;1.10;0.80;;;22.40;67.50;;;;;;5074854;28;20440;-66
2021/12/29 00:42:29;;;;;;;1.00;0.70;;;22.40;67.50;;;;;;5074731;28;20925;-65
2021/12/29 00:44:56;;;;;;;1.20;0.80;;;22.50;67.60;;;;;;5074664;28;20480;-66
2021/12/29 00:47:23;;;;;;;1.20;0.87;;;22.40;67.50;;;;;;5075004;28;20448;-66
2021/12/29 00:49:49;;;;;;;0.97;0.77;;;22.40;67.60;;;;;;5074755;28;20444;-66
2021/12/29 00:52:16;;;;;;;1.10;0.70;;;22.50;67.70;;;;;;5074543;28;20445;-66
2021/12/29 00:54:45;;;;;;;1.30;0.80;;;22.40;67.50;;;;;;5074524;28;20799;-66
2021/12/29 00:57:12;;;;;;;1.30;0.87;;;22.40;67.50;;;;;;5074581;28;20437;-66
2021/12/29 00:59:40;;;;;;;1.70;0.97;;;22.40;67.60;;;;;;5074277;28;20436;-66
2021/12/29 01:02:07;;;;;;;1.10;0.70;;;22.40;67.60;;;;;;5074439;28;20509;-65
2021/12/29 01:04:34;;;;;;;1.10;0.80;;;22.40;67.60;;;;;;5074575;28;20560;-66
2021/12/29 01:07:01;;;;;;;1.10;0.70;;;22.50;67.70;;;;;;5074270;28;20451;-66
2021/12/29 01:09:28;;;;;;;0.90;0.70;;;22.40;67.60;;;;;;5074314;28;20465;-66
2021/12/29 01:11:57;;;;;;;1.10;0.80;;;22.40;67.60;;;;;;5074170;28;20448;-65
2021/12/29 01:14:25;;;;;;;1.10;0.80;;;22.40;67.60;;;;;;5074123;28;20548;-66
2021/12/29 01:16:54;;;;;;;1.30;0.90;;;22.40;67.70;;;;;;5073930;28;20468;-66
2021/12/29 01:19:25;;;;;;;1.97;0.77;;;22.40;67.70;;;;;;5074098;28;20436;-66
2021/12/29 01:21:54;;;;;;;1.27;0.90;;;22.40;67.80;;;;;;5073849;28;20448;-66
2021/12/29 01:24:22;;;;;;;1.07;0.83;;;22.40;68.60;;;;;;5073667;28;20483;-65
2021/12/29 01:26:49;;;;;;;1.00;0.70;;;22.40;67.70;;;;;;5074110;28;20449;-65
2021/12/29 01:29:16;;;;;;;1.00;0.77;;;22.40;67.70;;;;;;5073972;28;20444;-65
2021/12/29 01:31:43;;;;;;;1.00;0.70;;;22.40;67.80;;;;;;5074087;28;20457;-65
2021/12/29 01:34:12;;;;;;;1.00;0.80;;;22.40;67.70;;;;;;5073600;28;20445;-66
2021/12/29 01:36:39;;;;;;;1.20;0.80;;;22.40;67.70;;;;;;5073576;28;20444;-66
2021/12/29 01:39:09;;;;;;;1.00;0.80;;;22.40;67.80;;;;;;5073676;28;20935;-66
2021/12/29 01:41:36;;;;;;;1.10;0.83;;;22.40;67.80;;;;;;5073826;28;20443;-66
2021/12/29 01:44:03;;;;;;;0.97;0.70;;;22.40;67.80;;;;;;5073393;28;20473;-66
2021/12/29 01:46:30;;;;;;;1.00;0.70;;;22.40;67.80;;;;;;5073705;28;20440;-66
2021/12/29 01:48:57;;;;;;;1.20;0.83;;;22.40;68.70;;;;;;5073411;28;20441;-66
2021/12/29 01:51:25;;;;;;;1.20;0.80;;;22.40;67.80;;;;;;5073570;28;20624;-66
2021/12/29 01:54:03;;;;;;;1.13;0.80;;;22.40;68.10;;;;;;5073360;28;20480;-66
2021/12/29 01:56:30;;;;;;;1.57;0.73;;;22.30;67.60;;;;;;5073397;28;20464;-66
2021/12/29 01:58:57;;;;;;;0.97;0.73;;;22.30;67.80;;;;;;5073542;28;20498;-66
2021/12/29 02:01:24;;;;;;;1.00;0.70;;;22.40;67.90;;;;;;5073335;28;20445;-66
2021/12/29 02:03:54;;;;;;;1.70;0.80;;;22.30;67.70;;;;;;5073572;28;20778;-65
2021/12/29 02:06:21;;;;;;;1.00;0.73;;;22.30;67.70;;;;;;5073237;28;20577;-66
2021/12/29 02:08:49;;;;;;;1.00;0.70;;;22.30;67.70;;;;;;5073161;28;20443;-66
2021/12/29 02:11:16;;;;;;;1.00;0.80;;;22.30;67.80;;;;;;5073081;28;20630;-66
2021/12/29 02:13:43;;;;;;;1.10;0.67;;;22.30;67.70;;;;;;5072929;28;20472;-66
2021/12/29 02:16:10;;;;;;;1.10;0.70;;;22.30;67.70;;;;;;5073022;28;20800;-66
2021/12/29 02:18:38;;;;;;;1.10;0.90;;;22.40;67.80;;;;;;5072745;28;20476;-66
2021/12/29 02:21:06;;;;;;;1.07;0.63;;;22.40;67.80;;;;;;5073110;28;20506;-66
2021/12/29 02:23:45;;;;;;;1.00;0.70;;;22.40;67.80;;;;;;5073000;28;20454;-66
2021/12/29 02:26:13;;;;;;;1.10;0.77;;;22.40;67.90;;;;;;5072948;28;20846;-66
2021/12/29 02:28:42;;;;;;;1.00;0.63;;;22.40;67.90;;;;;;5072831;28;20476;-65
2021/12/29 02:31:09;;;;;;;1.20;0.80;;;22.40;67.90;;;;;;5073067;28;20842;-66
2021/12/29 02:33:36;;;;;;;1.00;0.70;;;22.40;67.90;;;;;;5072604;28;20443;-66
2021/12/29 02:36:06;;;;;;;0.90;0.70;;;22.40;67.80;;;;;;5072344;28;20451;-66
2021/12/29 02:38:35;;;;;;;1.00;0.70;;;22.40;67.80;;;;;;5072635;28;20924;-66
2021/12/29 02:41:05;;;;;;;0.90;0.60;;;22.30;67.70;;;;;;5072743;28;20480;-66
2021/12/29 02:43:36;;;;;;;1.10;0.70;;;22.40;67.80;;;;;;5072387;28;20456;-65
2021/12/29 02:46:06;;;;;;;1.23;0.80;;;22.40;67.80;;;;;;5072534;28;20537;-66
2021/12/29 02:48:37;;;;;;;1.60;0.80;;;22.40;67.90;;;;;;5072652;28;20445;-65
2021/12/29 02:51:07;;;;;;;1.00;0.70;;;22.40;67.80;;;;;;5072627;28;20444;-65
2021/12/29 02:53:34;;;;;;;1.00;0.80;;;22.40;67.80;;;;;;5072648;28;20446;-66
2021/12/29 02:56:01;;;;;;;1.27;0.80;;;22.40;67.80;;;;;;5072464;28;20448;-66
2021/12/29 02:58:28;;;;;;;1.00;0.70;;;22.40;67.80;;;;;;5072553;28;20449;-66
2021/12/29 03:00:57;;;;;;;1.10;0.70;;;22.40;67.90;;;;;;5072918;28;20448;-66
2021/12/29 03:03:27;;;;;;;1.00;0.70;;;22.40;67.90;;;;;;5072568;28;20988;-66
2021/12/29 03:05:55;;;;;;;1.03;0.70;;;22.40;67.90;;;;;;5072479;28;20487;-66
2021/12/29 03:08:24;;;;;;;0.90;0.60;;;22.40;67.90;;;;;;5072763;28;20778;-66
2021/12/29 03:10:53;;;;;;;1.10;0.70;;;22.40;67.90;;;;;;5072616;28;20451;-66
2021/12/29 03:13:20;;;;;;;1.23;0.90;;;22.40;67.90;;;;;;5072174;28;20468;-66
2021/12/29 03:15:47;;;;;;;1.57;0.60;;;22.40;67.90;;;;;;5072677;28;20451;-66
2021/12/29 03:18:13;;;;;;;1.10;0.70;;;22.40;67.90;;;;;;5072110;28;20464;-66
2021/12/29 03:20:40;;;;;;;1.10;0.80;;;22.40;67.90;;;;;;5072472;28;20776;-66
2021/12/29 03:23:07;;;;;;;1.00;0.90;;;22.40;67.90;;;;;;5072478;28;20448;-66
2021/12/29 03:25:35;;;;;;;1.40;0.67;;;22.40;67.90;;;;;;5072076;28;20491;-65
2021/12/29 03:28:02;;;;;;;1.00;0.70;;;22.40;67.90;;;;;;5072378;28;21165;-66
2021/12/29 03:30:32;;;;;;;1.53;0.63;;;22.40;67.80;;;;;;5072218;28;20444;-66
2021/12/29 03:33:03;;;;;;;1.00;0.70;;;22.40;67.80;;;;;;5072189;28;20444;-66
2021/12/29 03:35:31;;;;;;;2.00;0.70;;;22.40;67.90;;;;;;5072205;28;20528;-66
2021/12/29 03:37:59;;;;;;;0.90;0.60;;;22.40;67.90;;;;;;5072202;28;20432;-66
2021/12/29 03:40:26;;;;;;;1.00;0.60;;;22.40;67.80;;;;;;5072069;28;20437;-66
2021/12/29 03:42:55;;;;;;;1.00;0.60;;;22.40;67.80;;;;;;5072409;28;20460;-65
2021/12/29 03:45:22;;;;;;;0.90;0.70;;;22.40;67.80;;;;;;5072431;28;20496;-66
2021/12/29 03:47:49;;;;;;;0.90;0.60;;;22.40;67.80;;;;;;5075673;28;20448;-65
2021/12/29 03:50:16;;;;;;;1.00;0.80;;;22.40;67.90;;;;;;5075816;28;20445;-65
2021/12/29 03:52:43;;;;;;;1.50;0.70;;;22.40;67.90;;;;;;5075771;28;20449;-66
2021/12/29 03:55:10;;;;;;;2.40;0.70;;;22.40;67.80;;;;;;5075871;28;20471;-66
2021/12/29 03:57:38;;;;;;;1.00;0.80;;;22.40;67.80;;;;;;5075651;28;20452;-66
2021/12/29 04:00:11;;;;;;;1.00;0.70;;;22.40;67.80;;;;;;5075763;28;20449;-66
2021/12/29 04:02:38;;;;;;;0.90;0.60;;;22.40;67.80;;;;;;5075700;28;20798;-66
2021/12/29 04:05:06;;;;;;;1.03;0.80;;;22.40;67.80;;;;;;5075423;28;20478;-66
2021/12/29 04:07:33;;;;;;;1.03;0.60;;;22.40;67.80;;;;;;5075549;28;20445;-66
2021/12/29 04:10:00;;;;;;;0.90;0.70;;;22.40;67.80;;;;;;5075379;28;20444;-66
2021/12/29 04:12:27;;;;;;;1.00;0.70;;;22.40;67.80;;;;;;5075534;28;20440;-66
2021/12/29 04:14:54;;;;;;;1.33;1.00;;;22.40;67.80;;;;;;5075576;28;20448;-66
2021/12/29 04:17:26;;;;;;;1.60;0.77;;;22.40;67.80;;;;;;5075140;28;20476;-65
2021/12/29 04:22:37;;;;;;;0.90;0.60;;;22.40;67.80;;;;;;5075423;28;20450;-65
2021/12/29 04:25:05;;;;;;;0.90;0.60;;;22.40;67.80;;;;;;5075046;28;20822;-66
2021/12/29 04:27:31;;;;;;;1.83;0.70;;;22.40;67.80;;;;;;5075117;28;20436;-66
2021/12/29 04:29:58;;;;;;;1.00;0.70;;;22.40;67.80;;;;;;5075429;28;20453;-66
2021/12/29 04:32:26;;;;;;;1.10;0.70;;;22.40;67.80;;;;;;5075148;28;20445;-66
2021/12/29 04:34:53;;;;;;;1.00;0.70;;;22.40;67.80;;;;;;5075197;28;20445;-66
2021/12/29 04:37:20;;;;;;;1.10;0.70;;;22.40;67.90;;;;;;5074923;28;21095;-65
2021/12/29 04:39:46;;;;;;;1.40;0.70;;;22.40;67.90;;;;;;5074755;28;20435;-66
2021/12/29 04:42:13;;;;;;;1.20;0.70;;;22.40;68.20;;;;;;5074940;28;20447;-65
2021/12/29 04:44:40;;;;;;;1.00;0.70;;;22.40;67.90;;;;;;5074839;28;20793;-66
2021/12/29 04:47:07;;;;;;;1.30;0.87;;;22.40;67.90;;;;;;5074658;28;20488;-66
2021/12/29 04:49:40;;;;;;;1.00;0.77;;;22.40;67.90;;;;;;5074795;28;21010;-66
2021/12/29 04:52:08;;;;;;;1.00;0.70;;;22.40;67.90;;;;;;5074701;28;20441;-65
2021/12/29 04:54:34;;;;;;;1.33;0.77;;;22.40;68.00;;;;;;5074596;28;20436;-65
2021/12/29 04:57:01;;;;;;;1.00;0.80;;;22.40;68.00;;;;;;5073927;28;20452;-66
2021/12/29 04:59:29;;;;;;;0.90;0.70;;;22.40;67.90;;;;;;5074597;28;20494;-66
2021/12/29 05:01:56;;;;;;;3.47;0.70;;;22.40;67.90;;;;;;5074615;28;20459;-66
2021/12/29 05:04:30;;;;;;;1.07;0.60;;;22.40;67.90;;;;;;5074378;28;20450;-66
2021/12/29 05:09:42;;;;;;;1.10;0.70;;;22.30;67.90;;;;;;5074700;28;20436;-66
2021/12/29 05:12:09;;;;;;;1.00;0.70;;;22.30;67.90;;;;;;5074373;28;20797;-65
2021/12/29 05:14:37;;;;;;;2.53;0.80;;;22.30;67.90;;;;;;5074375;28;20783;-66
2021/12/29 05:17:05;;;;;;;1.00;0.80;;;22.40;67.90;;;;;;5074087;28;20476;-66
2021/12/29 05:19:32;;;;;;;0.90;0.60;;;22.40;67.90;;;;;;5074018;28;20444;-66
2021/12/29 05:22:00;;;;;;;0.97;0.70;;;22.40;68.00;;;;;;5074235;28;20448;-65
2021/12/29 05:24:27;;;;;;;0.90;0.60;;;22.40;67.90;;;;;;5073993;28;20448;-66
2021/12/29 05:26:53;;;;;;;1.10;0.67;;;22.40;67.90;;;;;;5073962;28;20492;-66
2021/12/29 05:29:20;;;;;;;1.57;0.80;;;22.40;67.90;;;;;;5073851;28;20428;-66
2021/12/29 05:31:47;;;;;;;0.90;0.60;;;22.40;67.90;;;;;;5073930;28;20444;-66
2021/12/29 05:34:14;;;;;;;1.63;0.70;;;22.40;67.90;;;;;;5074050;28;20437;-66
2021/12/29 05:36:40;;;;;;;1.83;0.60;;;22.40;67.90;;;;;;5073957;28;20437;-65
2021/12/29 05:39:09;;;;;;;4.33;0.80;;;22.40;67.90;;;;;;5073829;28;20444;-66
2021/12/29 05:41:35;;;;;;;2.10;0.70;;;22.40;68.00;;;;;;5073645;28;20958;-65
2021/12/29 05:44:02;;;;;;;1.20;0.90;;;22.40;68.50;;;;;;5073588;28;20465;-65
2021/12/29 05:46:29;;;;;;;1.53;0.87;;;22.40;68.60;;;;;;5073611;28;20496;-65
2021/12/29 05:48:56;;;;;;;10.43;2.10;;;22.40;68.60;;;;;;5073407;28;20447;-66
2021/12/29 05:51:22;;;;;;;4.23;0.80;;;22.40;69.30;;;;;;5073739;28;20924;-65
2021/12/29 05:53:50;;;;;;;1.77;0.70;;;22.40;69.10;;;;;;5073376;28;20437;-66
2021/12/29 05:56:18;;;;;;;1.53;0.70;;;22.30;68.80;;;;;;5073578;28;20444;-66
2021/12/29 05:58:45;;;;;;;1.37;0.90;;;22.30;68.80;;;;;;5073414;28;20443;-66
2021/12/29 06:01:12;;;;;;;1.30;0.90;;;22.30;68.70;;;;;;5073271;28;20445;-66
2021/12/29 06:03:39;;;;;;;1.10;1.00;;;22.30;68.70;;;;;;5073320;28;20939;-66
2021/12/29 06:06:06;;;;;;;1.00;0.70;;;22.30;68.80;;;;;;5072982;28;20475;-65
2021/12/29 06:08:33;;;;;;;1.47;0.70;;;22.30;68.80;;;;;;5073240;28;20444;-66
2021/12/29 06:11:00;;;;;;;1.17;0.90;;;22.30;68.70;;;;;;5073212;28;20445;-65
2021/12/29 06:13:28;;;;;;;1.10;0.93;;;22.30;68.80;;;;;;5073073;28;20460;-66
2021/12/29 06:15:54;;;;;;;1.77;0.80;;;22.30;68.70;;;;;;5073040;28;20445;-66
2021/12/29 06:18:21;;;;;;;1.20;0.80;;;22.30;68.60;;;;;;5072775;28;20468;-66
2021/12/29 06:20:48;;;;;;;0.90;0.60;;;22.30;68.60;;;;;;5073041;28;20446;-65
2021/12/29 06:23:15;;;;;;;1.73;0.77;;;22.30;68.50;;;;;;5073049;28;20444;-66
2021/12/29 06:25:42;;;;;;;1.37;0.77;;;22.30;68.50;;;;;;5072729;28;20885;-65
2021/12/29 06:28:09;;;;;;;2.63;1.50;;;22.30;68.50;;;;;;5073056;28;20444;-65
2021/12/29 06:30:37;;;;;;;2.70;1.03;;;22.40;69.00;;;;;;5072802;28;20836;-65
2021/12/29 06:33:04;;;;;;;2.67;0.90;;;22.30;69.30;;;;;;5073001;28;20436;-65
2021/12/29 06:35:31;;;;;;;1.87;1.67;;;22.30;69.70;;;;;;5072890;28;20442;-66
2021/12/29 06:37:57;;;;;;;1.40;0.90;;;22.30;69.80;;;;;;5072504;28;20448;-66
2021/12/29 06:40:24;;;;;;;2.30;0.90;;;22.30;69.70;;;;;;5072672;28;20793;-66
2021/12/29 06:42:51;;;;;;;1.30;0.97;;;22.30;69.60;;;;;;5072392;28;20452;-66
2021/12/29 06:45:18;;;;;;;1.33;1.03;;;22.30;69.50;;;;;;5072808;28;20441;-65
2021/12/29 06:47:46;;;;;;;1.77;0.93;;;22.30;69.40;;;;;;5072575;28;20551;-66
2021/12/29 06:50:13;;;;;;;1.03;0.80;;;22.30;69.30;;;;;;5072642;28;20444;-66
2021/12/29 06:52:40;;;;;;;2.07;1.20;;;22.30;69.20;;;;;;5072876;28;21168;-66
2021/12/29 06:55:08;;;;;;;1.60;1.00;;;22.30;69.20;;;;;;5072671;28;20451;-66
2021/12/29 06:57:35;;;;;;;6.40;0.90;;;22.30;69.00;;;;;;5072837;28;20461;-66
2021/12/29 07:00:02;;;;;;;1.67;0.80;;;22.30;69.00;;;;;;5072768;28;20444;-66
2021/12/29 07:02:29;;;;;;;1.50;0.90;;;22.30;69.00;;;;;;5072709;28;20447;-66
2021/12/29 07:04:57;;;;;;;1.00;0.70;;;22.30;68.90;;;;;;5072643;28;20522;-66
2021/12/29 07:07:23;;;;;;;1.87;0.87;;;22.30;68.90;;;;;;5072453;28;20488;-66
2021/12/29 07:09:50;;;;;;;1.53;0.80;;;22.30;68.90;;;;;;5072577;28;20448;-66
2021/12/29 07:12:19;;;;;;;2.03;1.27;;;22.30;68.90;;;;;;5065102;28;20441;-68
2021/12/29 07:14:46;;;;;;;4.63;1.00;;;22.30;68.90;;;;;;5065202;28;20446;-71
2021/12/29 07:17:12;;;;;;;1.80;0.97;;;22.20;69.20;;;;;;5071878;28;20464;-70
2021/12/29 07:19:39;;;;;;;4.20;1.40;;;22.20;69.70;;;;;;5072237;28;20799;-68
2021/12/29 07:22:07;;;;;;;2.70;1.50;;;22.20;70.30;;;;;;5075586;28;20795;-67
2021/12/29 07:24:35;;;;;;;2.70;1.00;;;22.20;71.20;;;;;;5076444;28;20781;-66
2021/12/29 07:27:02;;;;;;;2.20;1.30;;;22.20;73.00;;;;;;5076213;28;20487;-67
2021/12/29 07:29:29;;;;;;;2.60;1.20;;;22.20;73.40;;;;;;5075900;28;20441;-67
2021/12/29 07:31:57;;;;;;;6.40;1.33;;;22.20;73.70;;;;;;5075946;28;20440;-70
2021/12/29 07:34:24;;;;;;;3.80;1.20;;;22.20;73.80;;;;;;5075263;28;20511;-66
2021/12/29 07:36:51;;;;;;;3.40;1.30;;;22.20;73.80;;;;;;5067599;28;20443;-66
2021/12/29 07:39:20;;;;;;;8.70;1.40;;;22.20;73.60;;;;;;5075691;28;20920;-68
2021/12/29 07:41:47;;;;;;;5.83;1.90;;;22.20;73.40;;;;;;5075688;28;20451;-67
2021/12/29 07:44:16;;;;;;;4.37;1.20;;;22.20;73.10;;;;;;5075747;28;20460;-70
2021/12/29 07:46:44;;;;;;;2.50;1.20;;;22.20;72.90;;;;;;5075627;28;20487;-66
2021/12/29 07:49:11;;;;;;;1.50;1.10;;;22.20;72.70;;;;;;5075554;28;20448;-70
2021/12/29 07:51:40;;;;;;;3.53;1.30;;;22.20;72.60;;;;;;5075595;28;20797;-67
2021/12/29 07:54:07;;;;;;;5.47;1.50;;;22.20;72.40;;;;;;5074789;28;20848;-65
2021/12/29 07:56:35;;;;;;;2.00;1.20;;;22.20;72.30;;;;;;5075668;28;20436;-65
2021/12/29 07:59:02;;;;;;;3.83;1.10;;;22.20;72.20;;;;;;5075380;28;20799;-65
2021/12/29 08:01:28;;;;;;;3.13;1.30;;;22.10;72.00;;;;;;5075340;28;20440;-67
2021/12/29 08:03:55;;;;;;;3.63;1.10;;;22.20;72.10;;;;;;5075457;28;20440;-65
2021/12/29 08:06:22;;;;;;;2.97;1.37;;;22.20;72.00;;;;;;5075154;28;20515;-67
2021/12/29 08:08:49;;;;;;;2.97;1.43;;;22.20;72.20;;;;;;5075441;28;20449;-65
2021/12/29 08:11:19;;;;;;;3.07;1.67;;;22.30;72.10;;;;;;5075453;28;20949;-66
2021/12/29 08:13:47;;;;;;;1.10;0.90;;;22.30;72.00;;;;;;5075111;28;20463;-69
2021/12/29 08:16:14;;;;;;;2.07;1.10;;;22.30;71.90;;;;;;5075061;28;20468;-69
2021/12/29 08:18:41;;;;;;;2.23;1.30;;;22.20;71.80;;;;;;5074930;28;20485;-70
2021/12/29 08:21:08;;;;;;;1.97;1.20;;;22.20;71.80;;;;;;5075319;28;20939;-67
2021/12/29 08:23:35;;;;;;;1.37;1.10;;;22.20;71.80;;;;;;5075091;28;20444;-67
2021/12/29 08:26:02;;;;;;;1.57;1.00;;;22.20;71.70;;;;;;5075104;28;20448;-68
2021/12/29 08:28:29;;;;;;;2.30;1.10;;;22.20;71.70;;;;;;5071315;28;20452;-68
2021/12/29 08:30:57;;;;;;;5.73;1.43;;;22.20;71.70;;;;;;5069966;28;20445;-69
2021/12/29 08:33:24;;;;;;;3.27;1.40;;;22.20;71.60;;;;;;5053513;28;20449;-69
2021/12/29 08:35:51;;;;;;;1.40;0.87;;;22.20;71.60;;;;;;5054970;28;20445;-66
2021/12/29 08:38:18;;;;;;;2.87;1.13;;;22.20;71.60;;;;;;5054646;28;20841;-68
2021/12/29 08:40:44;;;;;;;2.37;1.10;;;22.20;71.60;;;;;;5054862;28;20441;-69
2021/12/29 08:43:12;;;;;;;2.67;1.30;;;22.20;71.60;;;;;;5054562;28;20506;-68
2021/12/29 08:45:42;;;;;;;2.20;0.97;;;22.20;71.60;;;;;;5054421;28;20445;-71
2021/12/29 08:48:11;;;;;;;1.33;1.10;;;22.10;71.40;;;;;;5054626;28;20496;-67
2021/12/29 08:50:38;;;;;;;2.70;1.20;;;22.20;71.50;;;;;;5054690;28;20447;-64
2021/12/29 08:53:07;;;;;;;1.40;0.97;;;22.20;71.30;;;;;;5054939;28;20438;-64
2021/12/29 08:55:35;;;;;;;1.20;1.00;;;22.30;71.20;;;;;;5055402;28;20441;-64
2021/12/29 08:58:01;;;;;;;3.20;1.17;;;22.30;70.80;;;;;;5055176;28;21031;-63
2021/12/29 09:00:28;;;;;;;10.70;1.50;;;22.40;70.80;;;;;;5054665;28;20441;-64
2021/12/29 09:02:55;;;;;;;2.63;1.30;;;22.40;70.80;;;;;;5055152;28;20478;-64
2021/12/29 09:05:23;;;;;;;2.80;1.40;;;22.40;71.00;;;;;;5054594;28;20442;-64
2021/12/29 09:07:50;;;;;;;1.33;1.20;;;22.40;70.80;;;;;;5054709;28;20481;-64
2021/12/29 09:10:19;;;;;;;1.00;0.90;;;22.40;70.70;;;;;;5054815;28;20449;-63
2021/12/29 09:12:49;;;;;;;1.50;0.90;;;22.40;70.60;;;;;;5054838;28;20965;-63
2021/12/29 09:15:17;;;;;;;1.27;1.00;;;22.40;70.60;;;;;;5054644;28;20533;-63
2021/12/29 09:17:44;;;;;;;2.30;1.00;;;22.40;70.40;;;;;;5054498;28;20855;-64
2021/12/29 09:20:15;;;;;;;2.57;1.10;;;22.40;70.40;;;;;;5054703;28;20438;-64
2021/12/29 09:22:43;;;;;;;4.23;1.10;;;22.40;70.40;;;;;;5061242;28;20954;-63
2021/12/29 09:25:10;;;;;;;1.37;1.03;;;22.40;70.30;;;;;;5053071;28;20440;-64
2021/12/29 09:27:37;;;;;;;3.03;1.00;;;22.40;70.30;;;;;;5052917;28;20519;-64
2021/12/29 09:30:05;;;;;;;1.40;1.07;;;22.40;70.20;;;;;;5053996;28;20829;-65
2021/12/29 09:32:31;;;;;;;2.10;1.10;;;22.50;70.30;;;;;;5054401;28;20434;-63
2021/12/29 09:34:59;;;;;;;2.53;1.37;;;22.40;70.10;;;;;;5054594;28;20437;-63
2021/12/29 09:37:26;;;;;;;1.33;0.90;;;22.50;70.40;;;;;;5054490;28;20785;-65
2021/12/29 09:39:54;;;;;;;2.60;1.10;;;22.50;70.80;;;;;;5054545;28;20445;-63
2021/12/29 09:42:21;;;;;;;2.50;1.33;;;22.50;70.60;;;;;;5054240;28;20462;-63
2021/12/29 09:44:49;;;;;;;1.40;1.00;;;22.50;70.40;;;;;;5054146;28;20437;-64
2021/12/29 09:47:16;;;;;;;1.40;1.30;;;22.50;70.30;;;;;;5054155;28;20488;-64
2021/12/29 09:49:43;;;;;;;1.77;1.27;;;22.50;70.20;;;;;;5054075;28;20444;-64
2021/12/29 09:52:10;;;;;;;1.97;0.90;;;22.50;70.20;;;;;;5054276;28;20441;-63
2021/12/29 09:54:38;;;;;;;2.73;1.20;;;22.50;70.20;;;;;;5053944;28;20449;-64
2021/12/29 09:57:06;;;;;;;2.27;0.97;;;22.50;70.20;;;;;;5054095;28;20444;-64
2021/12/29 09:59:33;;;;;;;1.37;1.27;;;22.50;70.10;;;;;;5053935;28;20464;-64
2021/12/29 10:02:00;;;;;;;1.30;1.03;;;22.50;70.10;;;;;;5053892;28;20450;-64
2021/12/29 10:04:26;;;;;;;1.80;0.87;;;22.50;70.00;;;;;;5054062;28;20786;-65
2021/12/29 10:06:53;;;;;;;1.20;0.93;;;22.50;69.90;;;;;;5053912;28;20473;-63
2021/12/29 10:09:21;;;;;;;1.10;0.90;;;22.50;69.90;;;;;;5053826;28;20442;-64
2021/12/29 10:11:48;;;;;;;1.80;1.17;;;22.50;69.90;;;;;;5054022;28;20447;-64
2021/12/29 10:14:18;;;;;;;6.97;1.03;;;22.50;69.90;;;;;;5053878;28;20808;-64
2021/12/29 10:16:50;;;;;;;3.43;1.60;;;22.50;69.90;;;;;;5053607;28;20961;-64
2021/12/29 10:19:17;;;;;;;3.60;1.60;;;22.50;69.80;;;;;;5053532;28;20469;-64
2021/12/29 10:21:46;;;;;;;3.50;1.77;;;22.50;69.80;;;;;;5053760;28;20793;-65
2021/12/29 10:24:17;;;;;;;10.10;3.07;;;22.50;70.00;;;;;;5053899;28;20869;-65
2021/12/29 10:26:50;;;;;;;1.70;1.10;;;22.50;70.60;;;;;;5053875;28;20446;-65
2021/12/29 10:29:20;;;;;;;1.30;1.13;;;22.50;69.90;;;;;;5053492;28;20433;-64
2021/12/29 10:31:50;;;;;;;1.83;1.00;;;22.60;69.10;;;;;;5053570;28;20438;-64
2021/12/29 10:34:20;;;;;;;3.17;1.37;;;22.60;68.70;;;;;;5053223;28;20940;-64
2021/12/29 10:36:49;;;;;;;1.50;1.10;;;22.60;68.40;;;;;;5053449;28;20445;-64
2021/12/29 10:39:19;;;;;;;2.13;1.37;;;22.70;68.30;;;;;;5053322;28;20446;-64
2021/12/29 10:41:51;;;;;;;3.47;1.67;;;22.70;68.10;;;;;;5053372;28;20434;-64
2021/12/29 10:44:26;;;;;;;2.77;1.20;;;22.70;70.40;;;;;;5053025;28;20499;-64
2021/12/29 10:46:56;;;;;;;2.27;1.17;;;22.60;69.20;;;;;;5053242;28;20448;-64
2021/12/29 10:49:24;;;;;;;1.67;1.10;;;22.60;69.00;;;;;;5053252;28;20504;-64
2021/12/29 10:51:51;;;;;;;1.57;1.20;;;22.70;68.90;;;;;;5053034;28;20453;-65
2021/12/29 10:54:20;;;;;;;1.60;1.00;;;22.70;68.80;;;;;;5053149;28;20445;-63
2021/12/29 10:56:57;;;;;;;1.43;1.17;;;22.70;68.50;;;;;;5052320;28;20454;-64
2021/12/29 10:59:30;;;;;;;1.47;1.10;;;22.70;68.50;;;;;;5053177;28;20476;-65
2021/12/29 11:01:58;;;;;;;1.10;1.00;;;22.80;68.50;;;;;;5053179;28;20445;-65
2021/12/29 11:04:27;;;;;;;1.37;1.27;;;22.80;68.50;;;;;;5053031;28;20442;-65
2021/12/29 11:06:57;;;;;;;1.20;1.10;;;22.80;68.50;;;;;;5052049;28;20944;-66
2021/12/29 11:09:34;;;;;;;1.20;1.10;;;22.80;68.40;;;;;;5053011;28;20834;-64
2021/12/29 11:12:09;;;;;;;1.97;1.20;;;22.80;68.30;;;;;;5052921;28;20461;-63
2021/12/29 11:14:42;;;;;;;1.23;1.10;;;22.80;68.30;;;;;;5052988;28;20764;-65
2021/12/29 11:17:11;;;;;;;1.77;1.10;;;22.80;68.30;;;;;;5053025;28;20481;-64
2021/12/29 11:19:39;;;;;;;1.10;0.90;;;22.80;68.20;;;;;;5052936;28;20443;-64
2021/12/29 11:22:09;;;;;;;1.93;0.90;;;22.90;68.30;;;;;;5052823;28;20442;-63
2021/12/29 11:24:36;;;;;;;1.10;1.00;;;22.80;68.10;;;;;;5053017;28;20441;-65
2021/12/29 11:27:10;;;;;;;1.53;1.20;;;22.90;68.20;;;;;;5052985;28;20444;-64
2021/12/29 11:29:49;;;;;;;1.13;1.03;;;22.90;68.10;;;;;;5052912;28;20433;-64
2021/12/29 11:32:21;;;;;;;1.20;1.10;;;22.90;68.10;;;;;;5053121;28;20449;-64
2021/12/29 11:34:58;;;;;;;1.93;1.10;;;22.90;68.10;;;;;;5052898;28;20921;-64
2021/12/29 11:37:25;;;;;;;1.30;1.00;;;22.90;68.10;;;;;;5052664;28;20440;-64
2021/12/29 11:39:52;;;;;;;1.10;1.00;;;22.90;68.10;;;;;;5052063;28;20452;-64
2021/12/29 11:42:19;;;;;;;1.60;1.07;;;22.90;68.10;;;;;;5052129;28;20453;-63
2021/12/29 11:44:47;;;;;;;1.40;1.00;;;22.90;68.00;;;;;;5050645;28;20981;-64
2021/12/29 11:47:13;;;;;;;1.40;1.10;;;22.90;68.00;;;;;;5052228;28;20434;-64
2021/12/29 11:49:40;;;;;;;1.30;1.07;;;22.90;68.00;;;;;;5052814;28;20450;-66
2021/12/29 11:52:15;;;;;;;2.20;1.23;;;22.90;68.00;;;;;;5052612;28;20451;-65
2021/12/29 11:54:51;;;;;;;2.00;0.90;;;22.90;68.20;;;;;;5052767;28;20443;-65
2021/12/29 11:57:23;;;;;;;1.90;1.17;;;22.90;68.40;;;;;;5052789;28;20784;-66
2021/12/29 11:59:51;;;;;;;1.40;1.30;;;22.90;68.50;;;;;;5052612;28;20442;-67
2021/12/29 12:02:24;;;;;;;1.10;0.90;;;22.90;68.50;;;;;;5054379;28;20443;-67
2021/12/29 12:04:59;;;;;;;2.53;1.23;;;22.90;68.20;;;;;;5065266;28;20445;-66
2021/12/29 12:07:26;;;;;;;2.37;1.30;;;22.90;68.20;;;;;;5054787;28;20449;-66
2021/12/29 12:09:53;;;;;;;1.33;1.00;;;22.90;68.10;;;;;;5055791;28;20449;-66
2021/12/29 12:12:20;;;;;;;1.53;1.10;;;22.90;68.10;;;;;;5055849;28;20470;-66
2021/12/29 12:14:49;;;;;;;2.80;1.07;;;22.90;68.00;;;;;;5055896;28;20924;-66
2021/12/29 12:17:19;;;;;;;1.10;1.00;;;22.90;68.00;;;;;;5066250;28;20470;-65
2021/12/29 12:19:58;;;;;;;1.40;0.97;;;22.90;68.00;;;;;;5055272;28;20487;-65
2021/12/29 12:22:25;;;;;;;1.30;1.10;;;22.90;68.00;;;;;;5055176;28;20492;-66
2021/12/29 12:24:59;;;;;;;1.10;1.00;;;22.90;68.00;;;;;;5057205;28;20438;-66
2021/12/29 12:27:28;;;;;;;1.30;1.20;;;22.90;68.00;;;;;;5055025;28;20826;-66
2021/12/29 12:30:04;;;;;;;1.30;1.00;;;22.90;67.90;;;;;;5055004;28;20438;-66
2021/12/29 12:32:43;;;;;;;1.50;1.07;;;22.90;67.90;;;;;;5065458;28;20919;-66
2021/12/29 12:35:11;;;;;;;1.33;0.93;;;23.00;68.00;;;;;;5075474;28;20947;-66
2021/12/29 12:37:41;;;;;;;1.10;1.00;;;22.90;67.90;;;;;;5075388;28;20464;-66
2021/12/29 12:40:11;;;;;;;1.20;0.90;;;23.00;67.90;;;;;;5075593;28;20792;-67
2021/12/29 12:42:39;;;;;;;1.40;0.90;;;23.00;68.00;;;;;;5075443;28;20809;-66
2021/12/29 12:45:19;;;;;;;1.30;1.03;;;22.90;67.90;;;;;;5075454;28;20789;-66
2021/12/29 12:47:47;;;;;;;2.03;1.20;;;23.00;68.00;;;;;;5075332;28;20994;-67
2021/12/29 12:50:24;;;;;;;1.20;1.00;;;22.90;67.90;;;;;;5075287;28;20446;-66
2021/12/29 12:52:55;;;;;;;2.13;1.43;;;23.00;67.90;;;;;;5075335;28;20440;-66
2021/12/29 12:55:22;;;;;;;1.83;1.40;;;23.00;68.00;;;;;;5075315;28;20792;-66